Time;durP1;ratioP1;P1;durP2;ratioP2;P2;SDS_P1;SDS_P2;PMS_P1;PMS_P2;Temp;Humidity;BMP_temperature;BMP_pressure;BME280_temperature;BME280_humidity;BME280_pressure;Samples;Min_cycle;Max_cycle;Signal;HPM_P1;HPM_P2
2023/02/11 00:00:34;;;;;;;;;;;;;;;21.23;36.14;103300.41;7252345;19;152332;-60
2023/02/11 00:03:00;;;;;;;;;;;;;;;21.22;36.46;103304.31;7253368;19;154540;-59
2023/02/11 00:05:27;;;;;;;;;;;;;;;21.24;36.12;103318.97;7254627;19;152649;-58
2023/02/11 00:07:54;;;;;;;;;;;;;;;21.21;36.28;103324.28;7252238;19;152406;-60
2023/02/11 00:10:21;;;;;;;;;;;;;;;21.18;36.09;103322.81;7260895;19;154149;-59
2023/02/11 00:12:48;;;;;;;;;;;;;;;21.17;36.39;103317.44;7253138;19;153370;-60
2023/02/11 00:15:15;;;;;;;;;;;;;;;21.22;36.41;103321.19;7254135;19;154056;-61
2023/02/11 00:17:42;;;;;;;;;;;;;;;21.20;36.40;103314.97;7248008;19;154901;-61
2023/02/11 00:20:09;;;;;;;;;;;;;;;21.21;36.79;103318.66;7254523;19;152465;-60
2023/02/11 00:22:36;;;;;;;;;;;;;;;21.17;36.59;103312.66;7247170;19;153333;-60
2023/02/11 00:25:03;;;;;;;;;;;;;;;21.16;37.05;103322.22;7252094;19;153420;-61
2023/02/11 00:27:30;;;;;;;;;;;;;;;21.15;36.82;103325.28;7253543;19;155957;-60
2023/02/11 00:29:59;;;;;;;;;;;;;;;21.14;37.01;103315.13;7257384;19;154416;-60
2023/02/11 00:32:26;;;;;;;;;;;;;;;21.10;37.30;103313.91;7251346;19;154643;-60
2023/02/11 00:34:54;;;;;;;;;;;;;;;21.09;37.53;103317.81;7250440;19;154150;-60
2023/02/11 00:37:21;;;;;;;;;;;;;;;21.08;37.35;103318.94;7248777;19;152256;-60
2023/02/11 00:39:49;;;;;;;;;;;;;;;21.06;37.63;103326.78;7255183;19;153762;-60
2023/02/11 00:42:15;;;;;;;;;;;;;;;21.04;37.69;103324.22;7247435;19;153912;-60
2023/02/11 00:44:42;;;;;;;;;;;;;;;21.02;37.99;103325.59;7252440;19;153288;-60
2023/02/11 00:47:09;;;;;;;;;;;;;;;21.01;37.68;103324.72;7251678;19;153614;-61
2023/02/11 00:49:39;;;;;;;;;;;;;;;21.01;37.84;103335.13;7255973;19;155961;-60
2023/02/11 00:52:06;;;;;;;;;;;;;;;20.98;37.94;103330.88;7262910;19;153253;-60
2023/02/11 00:54:33;;;;;;;;;;;;;;;20.97;38.24;103323.53;7260109;19;153342;-61
2023/02/11 00:57:00;;;;;;;;;;;;;;;20.97;38.32;103326.34;7259852;19;152768;-60
2023/02/11 00:59:27;;;;;;;;;;;;;;;20.97;38.18;103322.69;7259582;19;154085;-60
2023/02/11 01:01:54;;;;;;;;;;;;;;;20.93;38.27;103325.16;7258378;19;154050;-59
2023/02/11 01:04:20;;;;;;;;;;;;;;;20.93;38.30;103322.34;7259431;19;154741;-60
2023/02/11 01:06:47;;;;;;;;;;;;;;;20.92;38.59;103328.19;7258068;19;153930;-61
2023/02/11 01:09:14;;;;;;;;;;;;;;;20.92;38.32;103325.41;7254803;19;153742;-61
2023/02/11 01:11:41;;;;;;;;;;;;;;;20.89;38.48;103331.53;7254248;19;152978;-60
2023/02/11 01:14:08;;;;;;;;;;;;;;;20.87;38.56;103328.97;7262967;19;152909;-60
2023/02/11 01:16:35;;;;;;;;;;;;;;;20.87;38.48;103323.34;7258973;19;154039;-60
2023/02/11 01:19:02;;;;;;;;;;;;;;;20.83;38.51;103317.38;7258837;19;153501;-60
2023/02/11 01:21:29;;;;;;;;;;;;;;;20.82;38.91;103312.84;7255164;19;154567;-60
2023/02/11 01:23:56;;;;;;;;;;;;;;;20.79;38.95;103306.91;7258917;19;152961;-60
2023/02/11 01:26:23;;;;;;;;;;;;;;;20.78;38.79;103314.47;7255000;19;152876;-60
2023/02/11 01:28:50;;;;;;;;;;;;;;;20.77;39.04;103312.75;7256760;19;153420;-60
2023/02/11 01:31:16;;;;;;;;;;;;;;;20.73;39.11;103317.19;7256490;19;153144;-60
2023/02/11 01:33:44;;;;;;;;;;;;;;;20.74;39.11;103315.22;7260757;19;153827;-60
2023/02/11 01:36:11;;;;;;;;;;;;;;;20.72;39.08;103321.09;7266491;19;154443;-59
2023/02/11 01:38:39;;;;;;;;;;;;;;;20.69;39.42;103321.59;7259138;19;153350;-60
2023/02/11 01:41:08;;;;;;;;;;;;;;;20.67;39.39;103323.81;7255985;19;153420;-59
2023/02/11 01:43:38;;;;;;;;;;;;;;;20.66;39.50;103315.66;7255102;19;152057;-60
2023/02/11 01:46:13;;;;;;;;;;;;;;;20.66;39.53;103305.25;7257315;19;154633;-61
2023/02/11 01:48:42;;;;;;;;;;;;;;;20.67;39.62;103314.56;7259239;19;153746;-60
2023/02/11 01:51:12;;;;;;;;;;;;;;;20.65;39.34;103311.13;7257493;19;152936;-60
2023/02/11 01:58:43;;;;;;;;;;;;;;;20.55;40.15;103294.94;7263814;19;153131;-59
2023/02/11 02:01:12;;;;;;;;;;;;;;;20.55;40.20;103306.16;7256403;19;153310;-60
2023/02/11 02:03:41;;;;;;;;;;;;;;;20.55;39.86;103297.72;7257115;19;153412;-60
2023/02/11 02:06:14;;;;;;;;;;;;;;;20.53;40.06;103304.72;7258296;19;152982;-60
2023/02/11 02:08:41;;;;;;;;;;;;;;;20.50;40.16;103296.78;7257809;19;154315;-60
2023/02/11 02:11:08;;;;;;;;;;;;;;;20.45;40.43;103303.16;7256723;19;152595;-59
2023/02/11 02:13:35;;;;;;;;;;;;;;;20.48;40.10;103310.22;7255626;19;154212;-60
2023/02/11 02:16:04;;;;;;;;;;;;;;;20.47;40.26;103306.56;7253425;19;154244;-59
2023/02/11 02:18:38;;;;;;;;;;;;;;;20.46;40.20;103315.22;7257797;19;153337;-60
2023/02/11 02:21:06;;;;;;;;;;;;;;;20.44;40.49;103307.09;7262767;19;153189;-60
2023/02/11 02:23:38;;;;;;;;;;;;;;;20.43;40.13;103299.75;7249937;19;153185;-59
2023/02/11 02:26:07;;;;;;;;;;;;;;;20.40;40.47;103301.09;7255910;19;153873;-60
2023/02/11 02:28:47;;;;;;;;;;;;;;;20.38;40.48;103296.84;7255168;19;154335;-60
2023/02/11 02:31:23;;;;;;;;;;;;;;;20.37;40.80;103284.75;7253814;19;152244;-61
2023/02/11 02:33:52;;;;;;;;;;;;;;;20.35;40.79;103283.31;7256438;19;153347;-60
2023/02/11 02:36:23;;;;;;;;;;;;;;;20.35;40.75;103286.94;7254611;19;153458;-60
2023/02/11 02:38:52;;;;;;;;;;;;;;;20.32;40.68;103289.41;7254405;19;153078;-60
2023/02/11 02:41:22;;;;;;;;;;;;;;;20.29;40.74;103287.06;7255304;19;153885;-60
2023/02/11 02:43:50;;;;;;;;;;;;;;;20.28;40.81;103293.78;7250982;19;153871;-61
2023/02/11 02:46:18;;;;;;;;;;;;;;;20.26;41.16;103288.41;7256630;19;153984;-61
2023/02/11 02:48:48;;;;;;;;;;;;;;;20.25;40.86;103280.25;7252587;19;154189;-60
2023/02/11 02:51:18;;;;;;;;;;;;;;;20.21;41.16;103277.09;7255180;19;154017;-60
2023/02/11 02:53:48;;;;;;;;;;;;;;;20.23;41.32;103274.88;7253941;19;154175;-60
2023/02/11 02:56:15;;;;;;;;;;;;;;;20.19;41.12;103275.63;7252898;19;154577;-60
2023/02/11 02:58:45;;;;;;;;;;;;;;;20.18;41.27;103273.91;7255589;19;153396;-60
2023/02/11 03:01:16;;;;;;;;;;;;;;;20.15;41.38;103277.25;7254637;19;152597;-60
2023/02/11 03:03:45;;;;;;;;;;;;;;;20.16;41.58;103270.53;7262253;19;153513;-60
2023/02/11 03:06:21;;;;;;;;;;;;;;;20.15;41.25;103266.88;7256239;19;154342;-60
2023/02/11 03:08:51;;;;;;;;;;;;;;;20.16;41.12;103267.72;7253116;19;155208;-60
2023/02/11 03:11:19;;;;;;;;;;;;;;;20.13;41.19;103259.78;7251440;19;152739;-61
2023/02/11 03:13:47;;;;;;;;;;;;;;;20.12;41.16;103249.69;7253909;19;153069;-60
2023/02/11 03:16:18;;;;;;;;;;;;;;;20.09;41.21;103252.97;7253327;19;154209;-62
2023/02/11 03:18:48;;;;;;;;;;;;;;;20.07;41.58;103263.59;7252171;19;153969;-60
2023/02/11 03:21:16;;;;;;;;;;;;;;;20.07;41.28;103270.06;7252809;19;155004;-61
2023/02/11 03:23:47;;;;;;;;;;;;;;;20.03;41.81;103260.44;7248484;19;153066;-60
2023/02/11 03:26:22;;;;;;;;;;;;;;;20.06;41.63;103254.31;7262416;19;153228;-59
2023/02/11 03:28:55;;;;;;;;;;;;;;;20.06;41.80;103254.31;7252293;19;154112;-59
2023/02/11 03:31:25;;;;;;;;;;;;;;;20.04;41.42;103264.06;7256041;19;152617;-59
2023/02/11 03:33:55;;;;;;;;;;;;;;;20.03;41.89;103270.81;7255823;19;153440;-59
2023/02/11 03:36:27;;;;;;;;;;;;;;;20.01;41.53;103271.06;7249692;19;152685;-60
2023/02/11 03:38:56;;;;;;;;;;;;;;;19.99;41.88;103273.25;7250512;19;153788;-60
2023/02/11 03:41:23;;;;;;;;;;;;;;;19.99;41.65;103276.06;7254130;19;153215;-60
2023/02/11 03:43:53;;;;;;;;;;;;;;;19.99;41.61;103274.09;7249257;19;153976;-59
2023/02/11 03:46:23;;;;;;;;;;;;;;;19.96;41.60;103269.00;7253683;19;152651;-59
2023/02/11 03:48:53;;;;;;;;;;;;;;;19.93;41.64;103266.69;7259585;19;155340;-59
2023/02/11 03:51:21;;;;;;;;;;;;;;;19.89;41.90;103271.09;7253843;19;152286;-59
2023/02/11 03:53:48;;;;;;;;;;;;;;;19.92;41.84;103259.38;7249624;19;153512;-60
2023/02/11 03:56:19;;;;;;;;;;;;;;;19.90;41.94;103258.75;7252495;19;153888;-59
2023/02/11 03:58:47;;;;;;;;;;;;;;;19.89;42.04;103264.63;7253714;19;153352;-60
2023/02/11 04:01:13;;;;;;;;;;;;;;;19.87;41.84;103256.44;7252929;19;153288;-61
2023/02/11 04:03:40;;;;;;;;;;;;;;;19.85;42.27;103255.84;7253516;19;156957;-60
2023/02/11 04:06:07;;;;;;;;;;;;;;;19.84;41.99;103256.97;7258026;19;154016;-61
2023/02/11 04:08:34;;;;;;;;;;;;;;;19.80;42.34;103263.31;7251515;19;153789;-60
2023/02/11 04:11:01;;;;;;;;;;;;;;;19.81;42.34;103267.78;7259259;19;156127;-60
2023/02/11 04:13:28;;;;;;;;;;;;;;;19.79;41.98;103259.66;7252700;19;153715;-59
2023/02/11 04:15:55;;;;;;;;;;;;;;;19.81;42.41;103268.66;7250627;19;155616;-59
2023/02/11 04:18:22;;;;;;;;;;;;;;;19.80;42.12;103266.97;7254969;19;152468;-59
2023/02/11 04:20:49;;;;;;;;;;;;;;;19.77;42.18;103260.97;7253430;19;153559;-59
2023/02/11 04:23:16;;;;;;;;;;;;;;;19.75;42.42;103271.59;7253114;19;154224;-59
2023/02/11 04:25:43;;;;;;;;;;;;;;;19.74;42.67;103267.94;7260767;19;152139;-60
2023/02/11 04:28:10;;;;;;;;;;;;;;;19.74;42.23;103267.94;7261235;19;153332;-59
2023/02/11 04:30:37;;;;;;;;;;;;;;;19.72;42.25;103272.94;7257615;19;154415;-60
2023/02/11 04:33:04;;;;;;;;;;;;;;;19.73;42.28;103273.78;7266657;19;153574;-60
2023/02/11 04:35:30;;;;;;;;;;;;;;;19.71;42.61;103274.06;7257217;19;154167;-60
2023/02/11 04:37:57;;;;;;;;;;;;;;;19.69;42.34;103266.97;7258992;19;153621;-59
2023/02/11 04:40:24;;;;;;;;;;;;;;;19.69;42.34;103272.59;7260677;19;154381;-60
2023/02/11 04:42:51;;;;;;;;;;;;;;;19.67;42.81;103274.81;7258937;19;153909;-60
2023/02/11 04:45:18;;;;;;;;;;;;;;;19.65;42.54;103275.03;7260993;19;154889;-60
2023/02/11 04:47:45;;;;;;;;;;;;;;;19.64;42.55;103275.28;7257974;19;152934;-60
2023/02/11 04:50:12;;;;;;;;;;;;;;;19.62;42.92;103278.34;7257371;19;153907;-60
2023/02/11 04:52:39;;;;;;;;;;;;;;;19.62;42.62;103285.91;7265586;19;154281;-60
2023/02/11 04:55:06;;;;;;;;;;;;;;;19.62;42.64;103288.69;7258058;19;153048;-60
2023/02/11 04:57:32;;;;;;;;;;;;;;;19.57;42.69;103283.84;7258256;19;153106;-60
2023/02/11 04:59:59;;;;;;;;;;;;;;;19.57;42.83;103286.63;7261154;19;155562;-60
2023/02/11 05:02:26;;;;;;;;;;;;;;;19.56;42.68;103287.72;7256801;19;155730;-60
2023/02/11 05:04:53;;;;;;;;;;;;;;;19.56;43.16;103303.69;7255712;19;152732;-60
2023/02/11 05:07:20;;;;;;;;;;;;;;;19.54;42.88;103301.13;7256406;19;154198;-59
2023/02/11 05:09:47;;;;;;;;;;;;;;;19.51;42.86;103291.25;7259019;19;153621;-60
2023/02/11 05:12:14;;;;;;;;;;;;;;;19.51;42.86;103294.06;7255188;19;153743;-60
2023/02/11 05:14:41;;;;;;;;;;;;;;;19.51;42.94;103298.81;7265761;19;154522;-61
2023/02/11 05:17:07;;;;;;;;;;;;;;;19.48;43.40;103290.91;7257643;19;152902;-60
2023/02/11 05:19:34;;;;;;;;;;;;;;;19.50;42.92;103294.31;7259591;19;153370;-60
2023/02/11 05:22:01;;;;;;;;;;;;;;;19.47;43.29;103290.06;7257422;19;154138;-59
2023/02/11 05:24:30;;;;;;;;;;;;;;;19.47;43.01;103290.06;7255157;19;153118;-59
2023/02/11 05:26:58;;;;;;;;;;;;;;;19.48;43.49;103294.56;7256140;19;156226;-59
2023/02/11 05:29:24;;;;;;;;;;;;;;;19.46;43.55;103309.91;7257676;19;154516;-59
2023/02/11 05:31:51;;;;;;;;;;;;;;;19.44;43.37;103314.94;7257082;19;153605;-59
2023/02/11 05:34:18;;;;;;;;;;;;;;;19.45;43.10;103302.59;7256042;19;153269;-59
2023/02/11 05:36:45;;;;;;;;;;;;;;;19.42;43.32;103311.47;7264638;19;153226;-59
2023/02/11 05:39:12;;;;;;;;;;;;;;;19.41;43.47;103306.94;7256273;19;153555;-59
2023/02/11 05:41:39;;;;;;;;;;;;;;;19.40;43.57;103317.31;7256826;19;154540;-60
2023/02/11 05:44:05;;;;;;;;;;;;;;;19.37;43.27;103306.59;7261076;19;153675;-60
2023/02/11 05:46:32;;;;;;;;;;;;;;;19.38;43.26;103307.44;7255643;19;153539;-60
2023/02/11 05:48:59;;;;;;;;;;;;;;;19.36;43.50;103299.25;7255258;19;154141;-60
2023/02/11 05:51:26;;;;;;;;;;;;;;;19.36;43.45;103304.88;7255417;19;151847;-60
2023/02/11 05:53:53;;;;;;;;;;;;;;;19.35;43.39;103303.16;7255280;19;153276;-59
2023/02/11 05:56:20;;;;;;;;;;;;;;;19.33;43.33;103301.72;7255702;19;153935;-61
2023/02/11 05:58:47;;;;;;;;;;;;;;;19.33;43.38;103312.91;7263207;19;153366;-60
2023/02/11 06:01:13;;;;;;;;;;;;;;;19.30;43.57;103310.63;7257588;19;153815;-59
2023/02/11 06:03:40;;;;;;;;;;;;;;;19.33;43.70;103307.31;7255625;19;152401;-60
2023/02/11 06:06:10;;;;;;;;;;;;;;;19.32;43.83;103300.00;7255607;19;154903;-60
2023/02/11 06:08:37;;;;;;;;;;;;;;;19.29;43.63;103298.53;7252948;19;153652;-60
2023/02/11 06:11:04;;;;;;;;;;;;;;;19.32;43.91;103291.59;7256940;19;152323;-60
2023/02/11 06:13:31;;;;;;;;;;;;;;;19.30;43.86;103279.78;7256425;19;155029;-60
2023/02/11 06:15:59;;;;;;;;;;;;;;;19.29;43.56;103280.88;7255621;19;154232;-60
2023/02/11 06:18:26;;;;;;;;;;;;;;;19.28;43.96;103291.22;7255770;19;153393;-60
2023/02/11 06:20:53;;;;;;;;;;;;;;;19.27;43.70;103295.13;7262544;19;155834;-60
2023/02/11 06:23:20;;;;;;;;;;;;;;;19.27;43.57;103295.13;7254613;19;154075;-59
2023/02/11 06:25:47;;;;;;;;;;;;;;;19.24;43.71;103286.34;7257344;19;153125;-59
2023/02/11 06:28:15;;;;;;;;;;;;;;;19.22;44.06;103294.13;7254349;19;153900;-61
2023/02/11 06:30:42;;;;;;;;;;;;;;;19.22;44.07;103300.59;7255862;19;153951;-60
2023/02/11 06:33:09;;;;;;;;;;;;;;;19.23;43.77;103304.25;7257557;19;152386;-60
2023/02/11 06:35:38;;;;;;;;;;;;;;;19.22;43.70;103294.13;7253430;19;153532;-61
2023/02/11 06:38:06;;;;;;;;;;;;;;;19.21;43.93;103300.84;7254862;19;153063;-60
2023/02/11 06:40:32;;;;;;;;;;;;;;;19.21;43.85;103304.50;7258694;19;153867;-60
2023/02/11 06:42:59;;;;;;;;;;;;;;;19.19;43.81;103306.69;7261855;19;153332;-60
2023/02/11 06:45:26;;;;;;;;;;;;;;;19.18;43.51;103304.97;7251041;19;154686;-60
2023/02/11 06:47:53;;;;;;;;;;;;;;;19.19;43.76;103317.03;7255115;19;153776;-61
2023/02/11 06:50:20;;;;;;;;;;;;;;;19.18;43.85;103321.78;7254910;19;155218;-60
2023/02/11 06:52:47;;;;;;;;;;;;;;;19.15;43.75;103324.22;7255292;19;154046;-61
2023/02/11 06:55:14;;;;;;;;;;;;;;;19.17;43.93;103322.06;7256867;19;154573;-61
2023/02/11 06:57:41;;;;;;;;;;;;;;;19.15;43.76;103327.91;7253752;19;153560;-60
2023/02/11 07:00:08;;;;;;;;;;;;;;;19.15;43.82;103325.09;7257087;19;154051;-60
2023/02/11 07:02:35;;;;;;;;;;;;;;;19.12;44.19;103327.53;7263707;19;153394;-60
2023/02/11 07:05:04;;;;;;;;;;;;;;;19.14;43.61;103325.31;7257901;19;153659;-60
2023/02/11 07:07:31;;;;;;;;;;;;;;;19.13;44.06;103326.41;7253140;19;155498;-59
2023/02/11 07:10:01;;;;;;;;;;;;;;;19.14;44.06;103333.72;7256413;19;152165;-60
2023/02/11 07:12:29;;;;;;;;;;;;;;;19.13;43.98;103327.25;7254376;19;153775;-59
2023/02/11 07:14:56;;;;;;;;;;;;;;;19.12;43.80;103333.13;7254177;19;152769;-60
2023/02/11 07:17:23;;;;;;;;;;;;;;;19.11;43.55;103329.47;7256372;19;152897;-60
2023/02/11 07:19:50;;;;;;;;;;;;;;;19.11;43.89;103326.66;7255340;19;154090;-60
2023/02/11 07:22:16;;;;;;;;;;;;;;;19.08;43.58;103342.00;7253094;19;154582;-60
2023/02/11 07:24:43;;;;;;;;;;;;;;;19.08;44.09;103346.75;7259428;19;154726;-61
2023/02/11 07:27:10;;;;;;;;;;;;;;;19.08;43.95;103352.34;7252283;19;153758;-60
2023/02/11 07:29:37;;;;;;;;;;;;;;;19.05;44.03;103359.31;7254643;19;154666;-60
2023/02/11 07:32:04;;;;;;;;;;;;;;;19.05;43.96;103353.69;7254199;19;153377;-60
2023/02/11 07:34:31;;;;;;;;;;;;;;;19.06;43.93;103348.94;7253782;19;153971;-59
2023/02/11 07:36:58;;;;;;;;;;;;;;;19.05;44.12;103367.69;7255697;19;151882;-60
2023/02/11 07:39:26;;;;;;;;;;;;;;;19.06;44.12;103365.75;7254333;19;155356;-59
2023/02/11 07:41:53;;;;;;;;;;;;;;;19.03;43.96;103372.69;7249868;19;153454;-59
2023/02/11 07:44:20;;;;;;;;;;;;;;;19.04;44.24;103370.72;7251901;19;153103;-60
2023/02/11 07:46:48;;;;;;;;;;;;;;;19.03;44.30;103369.88;7258919;19;153941;-60
2023/02/11 07:49:15;;;;;;;;;;;;;;;19.00;44.37;103369.50;7253304;19;153964;-60
2023/02/11 07:51:41;;;;;;;;;;;;;;;19.01;44.06;103360.88;7255025;19;153431;-60
2023/02/11 07:54:09;;;;;;;;;;;;;;;19.00;44.04;103355.50;7251082;19;154265;-60
2023/02/11 07:56:36;;;;;;;;;;;;;;;18.99;43.96;103363.03;7253408;19;154461;-60
2023/02/11 07:59:03;;;;;;;;;;;;;;;19.00;44.20;103353.56;7254027;19;154066;-60
2023/02/11 08:01:30;;;;;;;;;;;;;;;18.99;44.19;103360.25;7253077;19;154388;-60
2023/02/11 08:03:57;;;;;;;;;;;;;;;18.98;43.77;103361.38;7251519;19;153957;-59
2023/02/11 08:06:27;;;;;;;;;;;;;;;18.96;43.83;103366.34;7247978;19;155259;-60
2023/02/11 08:08:54;;;;;;;;;;;;;;;18.96;44.27;103363.53;7256395;19;155214;-60
2023/02/11 08:11:22;;;;;;;;;;;;;;;18.95;44.03;103363.75;7250558;19;153856;-60
2023/02/11 08:13:50;;;;;;;;;;;;;;;18.94;44.08;103367.69;7250776;19;153917;-61
2023/02/11 08:16:20;;;;;;;;;;;;;;;18.96;44.03;103368.28;7251939;19;154975;-60
2023/02/11 08:18:47;;;;;;;;;;;;;;;18.94;44.26;103365.72;7254576;19;153640;-60
2023/02/11 08:21:14;;;;;;;;;;;;;;;18.94;44.31;103373.28;7254710;19;154540;-60
2023/02/11 08:23:41;;;;;;;;;;;;;;;18.93;44.25;103382.78;7250425;19;152938;-61
2023/02/11 08:26:12;;;;;;;;;;;;;;;18.91;44.04;103369.00;7250557;19;154428;-60
2023/02/11 08:28:39;;;;;;;;;;;;;;;18.92;44.34;103376.31;7252178;19;153833;-61
2023/02/11 08:31:07;;;;;;;;;;;;;;;18.88;44.09;103375.09;7256748;19;153433;-60
2023/02/11 08:33:35;;;;;;;;;;;;;;;18.90;44.28;103372.88;7249467;19;153414;-60
2023/02/11 08:36:07;;;;;;;;;;;;;;;18.91;44.15;103377.41;7252471;19;153438;-61
2023/02/11 08:38:33;;;;;;;;;;;;;;;18.90;44.08;103377.63;7247350;19;153554;-60
2023/02/11 08:41:00;;;;;;;;;;;;;;;18.87;44.08;103387.38;7248857;19;152973;-61
2023/02/11 08:43:27;;;;;;;;;;;;;;;18.88;44.07;103377.03;7249119;19;154233;-61
2023/02/11 08:45:54;;;;;;;;;;;;;;;18.88;44.44;103383.50;7249884;19;153384;-61
2023/02/11 08:48:21;;;;;;;;;;;;;;;18.85;44.22;103378.34;7251723;19;154233;-59
2023/02/11 08:50:48;;;;;;;;;;;;;;;18.87;44.41;103383.72;7258959;19;154719;-60
2023/02/11 08:53:15;;;;;;;;;;;;;;;18.85;44.63;103377.50;7248135;19;155075;-60
2023/02/11 08:55:45;;;;;;;;;;;;;;;18.82;44.66;103381.63;7249864;19;154692;-60
2023/02/11 08:58:12;;;;;;;;;;;;;;;18.85;44.31;103380.31;7251931;19;153838;-60
2023/02/11 09:00:39;;;;;;;;;;;;;;;18.83;44.34;103380.53;7249582;19;153639;-60
2023/02/11 09:03:06;;;;;;;;;;;;;;;18.83;44.25;103374.94;7251797;19;152666;-59
2023/02/11 09:05:33;;;;;;;;;;;;;;;18.82;44.31;103378.84;7250401;19;153367;-60
2023/02/11 09:07:59;;;;;;;;;;;;;;;18.81;44.71;103374.31;7249140;19;154595;-60
2023/02/11 09:10:26;;;;;;;;;;;;;;;18.81;44.37;103379.06;7255317;19;153574;-60
2023/02/11 09:12:53;;;;;;;;;;;;;;;18.80;44.77;103380.16;7262044;19;153246;-60
2023/02/11 09:15:20;;;;;;;;;;;;;;;18.76;44.78;103374.16;7255726;19;152913;-59
2023/02/11 09:17:47;;;;;;;;;;;;;;;18.75;44.46;103374.44;7256573;19;154168;-60
2023/02/11 09:20:14;;;;;;;;;;;;;;;18.77;44.42;103384.28;7258347;19;154398;-61
2023/02/11 09:22:41;;;;;;;;;;;;;;;18.79;44.85;103378.47;7256246;19;153182;-61
2023/02/11 09:25:08;;;;;;;;;;;;;;;18.77;44.69;103386.22;7258080;19;153062;-61
2023/02/11 09:27:35;;;;;;;;;;;;;;;18.76;44.64;103376.13;7253057;19;152719;-62
2023/02/11 09:30:02;;;;;;;;;;;;;;;18.79;44.73;103382.13;7259940;19;153528;-59
2023/02/11 09:32:29;;;;;;;;;;;;;;;18.79;44.67;103390.53;7258146;19;154653;-60
2023/02/11 09:34:56;;;;;;;;;;;;;;;18.80;45.07;103388.56;7267121;19;154775;-60
2023/02/11 09:37:23;;;;;;;;;;;;;;;18.87;44.91;103389.31;7255783;19;153235;-60
2023/02/11 09:39:50;;;;;;;;;;;;;;;18.92;45.13;103384.72;7258146;19;154695;-58
2023/02/11 09:42:20;;;;;;;;;;;;;;;18.56;43.41;103376.41;7249022;19;154126;-59
2023/02/11 09:44:48;;;;;;;;;;;;;;;18.41;43.48;103385.16;7256753;19;154163;-59
2023/02/11 09:47:15;;;;;;;;;;;;;;;18.39;43.13;103389.31;7254865;19;153281;-59
2023/02/11 09:49:45;;;;;;;;;;;;;;;18.47;42.82;103387.03;7250900;19;153395;-59
2023/02/11 09:52:15;;;;;;;;;;;;;;;18.54;43.22;103385.03;7254635;19;152785;-59
2023/02/11 09:54:52;;;;;;;;;;;;;;;18.74;43.46;103386.72;7251896;19;154006;-58
2023/02/11 09:57:19;;;;;;;;;;;;;;;18.83;43.34;103376.88;7264819;19;152627;-59
2023/02/11 09:59:54;;;;;;;;;;;;;;;18.94;43.00;103404.09;7256656;19;154064;-59
2023/02/11 10:02:23;;;;;;;;;;;;;;;19.01;42.85;103400.09;7258556;19;152714;-59
2023/02/11 10:04:50;;;;;;;;;;;;;;;19.08;43.02;103402.78;7257235;19;152050;-58
2023/02/11 10:07:17;;;;;;;;;;;;;;;19.13;42.98;103396.47;7252943;19;153287;-58
2023/02/11 10:09:46;;;;;;;;;;;;;;;19.20;42.61;103384.06;7257793;19;153574;-58
2023/02/11 10:12:14;;;;;;;;;;;;;;;19.26;42.54;103385.06;7255352;19;153169;-58
2023/02/11 10:14:48;;;;;;;;;;;;;;;19.32;42.91;103386.88;7255777;19;153980;-58
2023/02/11 10:17:18;;;;;;;;;;;;;;;19.38;42.83;103397.16;7253371;19;153005;-58
2023/02/11 10:19:46;;;;;;;;;;;;;;;19.43;42.71;103389.75;7264030;19;153366;-58
2023/02/11 10:22:13;;;;;;;;;;;;;;;19.49;42.66;103397.19;7255199;19;154231;-59
2023/02/11 10:24:41;;;;;;;;;;;;;;;19.55;42.33;103389.75;7256822;19;154194;-59
2023/02/11 10:27:11;;;;;;;;;;;;;;;19.60;42.47;103392.69;7250360;19;153819;-58
2023/02/11 10:29:43;;;;;;;;;;;;;;;19.67;42.08;103395.41;7254650;19;152159;-58
2023/02/11 10:32:21;;;;;;;;;;;;;;;19.73;41.96;103397.22;7253243;19;153094;-58
2023/02/11 10:34:49;;;;;;;;;;;;;;;19.79;41.96;103405.53;7255698;19;153395;-59
2023/02/11 10:37:16;;;;;;;;;;;;;;;19.85;41.96;103407.31;7254200;19;153811;-58
2023/02/11 10:39:43;;;;;;;;;;;;;;;19.90;42.21;103406.59;7203379;19;158091;-58
2023/02/11 10:42:12;;;;;;;;;;;;;;;19.96;41.80;103417.72;7255246;19;153894;-58
2023/02/11 10:44:42;;;;;;;;;;;;;;;20.01;41.66;103414.19;7257193;19;152936;-59
2023/02/11 10:47:14;;;;;;;;;;;;;;;20.06;41.44;103419.06;7249547;19;153561;-59
2023/02/11 10:49:43;;;;;;;;;;;;;;;20.13;41.67;103428.19;7257162;19;153471;-59
2023/02/11 10:52:12;;;;;;;;;;;;;;;20.16;41.47;103425.75;7251498;19;153861;-59
2023/02/11 10:54:39;;;;;;;;;;;;;;;20.19;41.26;103411.22;7250933;19;154096;-59
2023/02/11 10:57:06;;;;;;;;;;;;;;;20.24;41.36;103413.28;7253452;19;153820;-59
2023/02/11 10:59:38;;;;;;;;;;;;;;;20.26;40.83;103413.91;7254811;19;153112;-59
2023/02/11 11:02:20;;;;;;;;;;;;;;;20.32;41.18;103419.41;7258370;19;154004;-59
2023/02/11 11:04:47;;;;;;;;;;;;;;;20.34;41.09;103411.59;7257686;19;154505;-59
2023/02/11 11:07:17;;;;;;;;;;;;;;;20.37;41.04;103410.25;7245822;19;154203;-59
2023/02/11 11:09:47;;;;;;;;;;;;;;;20.40;40.77;103413.41;7255021;19;152535;-59
2023/02/11 11:12:17;;;;;;;;;;;;;;;20.43;40.57;103417.69;7249979;19;153880;-59
2023/02/11 11:14:53;;;;;;;;;;;;;;;20.47;40.77;103416.09;7254846;19;155192;-59
2023/02/11 11:17:20;;;;;;;;;;;;;;;20.50;40.92;103424.00;7254355;19;152791;-59
2023/02/11 11:19:50;;;;;;;;;;;;;;;20.55;40.65;103426.06;7255491;19;153932;-59
2023/02/11 11:22:19;;;;;;;;;;;;;;;20.60;40.83;103431.81;7249533;19;154112;-59
2023/02/11 11:24:53;;;;;;;;;;;;;;;20.62;40.70;103424.84;7260057;19;154100;-58
2023/02/11 11:27:22;;;;;;;;;;;;;;;20.67;40.51;103432.53;7248829;19;155156;-58
2023/02/11 11:29:51;;;;;;;;;;;;;;;20.71;40.20;103423.38;7254732;19;153902;-59
2023/02/11 11:32:21;;;;;;;;;;;;;;;20.75;40.45;103412.47;7250885;19;153302;-59
2023/02/11 11:34:49;;;;;;;;;;;;;;;20.78;40.29;103406.34;7252663;19;153286;-59
2023/02/11 11:37:20;;;;;;;;;;;;;;;20.83;40.38;103417.69;7252463;19;152718;-60
2023/02/11 11:39:53;;;;;;;;;;;;;;;20.87;40.34;103416.06;7252339;19;154116;-59
2023/02/11 11:42:23;;;;;;;;;;;;;;;20.92;40.07;103415.31;7249673;19;152305;-59
2023/02/11 11:44:53;;;;;;;;;;;;;;;20.96;40.08;103408.94;7253293;19;153398;-60
2023/02/11 11:47:24;;;;;;;;;;;;;;;20.99;39.82;103404.75;7256016;19;153522;-58
2023/02/11 11:49:51;;;;;;;;;;;;;;;21.05;40.19;103413.06;7251910;19;153152;-59
2023/02/11 11:52:32;;;;;;;;;;;;;;;21.07;39.90;103408.06;7254983;19;154072;-59
2023/02/11 11:55:02;;;;;;;;;;;;;;;21.11;40.05;103402.78;7198240;19;158027;-59
2023/02/11 11:57:30;;;;;;;;;;;;;;;21.16;39.57;103405.72;7243676;19;154562;-59
2023/02/11 11:59:58;;;;;;;;;;;;;;;21.18;39.95;103403.47;7253213;19;153585;-59
2023/02/11 12:02:28;;;;;;;;;;;;;;;21.21;39.45;103405.81;7247757;19;153623;-59
2023/02/11 12:05:00;;;;;;;;;;;;;;;21.24;39.46;103405.28;7252325;19;153504;-59
2023/02/11 12:07:27;;;;;;;;;;;;;;;21.27;39.60;103414.06;7250534;19;153463;-58
2023/02/11 12:09:56;;;;;;;;;;;;;;;21.29;39.54;103414.69;7263761;19;154196;-58
2023/02/11 12:12:26;;;;;;;;;;;;;;;21.30;39.36;103407.94;7248999;19;153273;-59
2023/02/11 12:14:56;;;;;;;;;;;;;;;21.33;39.32;103397.28;7253004;19;153758;-59
2023/02/11 12:17:26;;;;;;;;;;;;;;;21.34;39.45;103399.84;7250736;19;152537;-59
2023/02/11 12:19:56;;;;;;;;;;;;;;;21.34;39.27;103404.63;7251974;19;153312;-59
2023/02/11 12:22:23;;;;;;;;;;;;;;;21.36;39.59;103405.22;7250317;19;153908;-59
2023/02/11 12:24:53;;;;;;;;;;;;;;;21.38;39.12;103409.50;7254448;19;153320;-59
2023/02/11 12:27:23;;;;;;;;;;;;;;;21.38;39.52;103394.56;7250276;19;154132;-58
2023/02/11 12:29:59;;;;;;;;;;;;;;;21.41;39.25;103397.72;7251656;19;155182;-59
2023/02/11 12:32:32;;;;;;;;;;;;;;;21.40;39.31;103395.16;7255078;19;153275;-59
2023/02/11 12:35:05;;;;;;;;;;;;;;;21.40;39.35;103396.00;7254614;19;154556;-59
2023/02/11 12:37:34;;;;;;;;;;;;;;;21.41;38.96;103394.06;7249572;19;152131;-58